Time;durP1;ratioP1;P1;durP2;ratioP2;P2;SDS_P1;SDS_P2;PMS_P1;PMS_P2;Temp;Humidity;BMP_temperature;BMP_pressure;BME280_temperature;BME280_humidity;BME280_pressure;Samples;Min_cycle;Max_cycle;Signal;HPM_P1;HPM_P2
2023/01/10 00:00:33;;;;;;;;;;;31.30;84.10;;;;;;5067742;28;19912;-76
2023/01/10 00:03:01;;;;;;;;;;;31.30;84.60;;;;;;5070015;28;19913;-75
2023/01/10 00:05:27;;;;;;;;;;;31.40;84.90;;;;;;5064309;28;20025;-73
2023/01/10 00:07:54;;;;;;;;;;;31.60;85.90;;;;;;5064553;28;19920;-73
2023/01/10 00:10:21;;;;;;;;;;;31.70;84.30;;;;;;5065770;28;19913;-75
2023/01/10 00:15:33;;;;;;;;;;;32.00;82.80;;;;;;5066864;28;20313;-75
2023/01/10 00:18:00;;;;;;;;;;;31.90;83.80;;;;;;5063977;28;20435;-78
2023/01/10 00:20:26;;;;;;;;;;;32.00;82.10;;;;;;5056202;28;19912;-77
2023/01/10 00:22:53;;;;;;;;;;;32.10;83.10;;;;;;5061366;28;19921;-83
2023/01/10 00:25:20;;;;;;;;;;;32.00;82.60;;;;;;5068049;28;20389;-78
2023/01/10 00:28:20;;;;;;;;;;;31.80;81.00;;;;;;5069050;28;19938;-73
2023/01/10 00:30:40;;;;;;;;;;;31.80;83.60;;;;;;5065586;28;20058;-75
2023/01/10 00:33:07;;;;;;;;;;;31.90;82.00;;;;;;5069602;28;19912;-75
2023/01/10 00:35:34;;;;;;;;;;;31.90;81.40;;;;;;5068722;28;20007;-76
2023/01/10 00:38:04;;;;;;;;;;;32.10;83.50;;;;;;5067143;28;19952;-73
2023/01/10 00:40:34;;;;;;;;;;;32.30;82.00;;;;;;5067537;28;19970;-71
2023/01/10 00:45:46;;;;;;;;;;;32.00;83.20;;;;;;5067590;28;20803;-74
2023/01/10 00:48:13;;;;;;;;;;;32.10;83.50;;;;;;5069506;28;20282;-76
2023/01/10 00:50:39;;;;;;;;;;;32.30;81.80;;;;;;5061525;28;19919;-74
2023/01/10 00:53:08;;;;;;;;;;;32.40;82.80;;;;;;5067704;28;20366;-74
2023/01/10 00:55:35;;;;;;;;;;;32.60;82.70;;;;;;5070397;28;19913;-74
2023/01/10 00:58:02;;;;;;;;;;;32.80;82.40;;;;;;5068447;28;19916;-73
2023/01/10 01:00:29;;;;;;;;;;;33.10;82.40;;;;;;5067965;28;19936;-75
2023/01/10 01:02:56;;;;;;;;;;;33.20;80.10;;;;;;5067567;28;19916;-77
2023/01/10 01:05:22;;;;;;;;;;;33.00;77.80;;;;;;5069583;28;19932;-77
2023/01/10 01:07:51;;;;;;;;;;;32.60;80.60;;;;;;5067901;28;20018;-77
2023/01/10 01:10:27;;;;;;;;;;;32.50;78.30;;;;;;5066205;28;19913;-77
2023/01/10 01:12:55;;;;;;;;;;;32.10;81.10;;;;;;5062608;28;21114;-75
2023/01/10 01:15:22;;;;;;;;;;;32.20;82.30;;;;;;5062950;28;19913;-73
2023/01/10 01:17:49;;;;;;;;;;;32.40;79.90;;;;;;5067091;28;19928;-73
2023/01/10 01:20:16;;;;;;;;;;;32.10;80.90;;;;;;5067040;28;19929;-74
2023/01/10 01:22:42;;;;;;;;;;;32.40;83.40;;;;;;5070228;28;19924;-77
2023/01/10 01:25:09;;;;;;;;;;;32.60;82.00;;;;;;5062240;28;20014;-72
2023/01/10 01:27:37;;;;;;;;;;;33.00;84.90;;;;;;5076256;28;19924;-74
2023/01/10 01:30:05;;;;;;;;;;;33.20;83.70;;;;;;5074256;28;19952;-75
2023/01/10 01:32:31;;;;;;;;;;;33.40;85.10;;;;;;5076223;28;20029;-73
2023/01/10 01:34:58;;;;;;;;;;;33.60;83.00;;;;;;5072925;28;19921;-77
2023/01/10 01:37:25;;;;;;;;;;;33.80;80.90;;;;;;5073066;28;19913;-77
2023/01/10 01:39:51;;;;;;;;;;;33.80;82.00;;;;;;5069932;28;19921;-77
2023/01/10 01:42:29;;;;;;;;;;;33.80;82.80;;;;;;5060490;28;20290;-72
2023/01/10 01:45:22;;;;;;;;;;;33.80;81.80;;;;;;5061148;28;19920;-75
2023/01/10 01:47:49;;;;;;;;;;;33.80;80.80;;;;;;5056460;28;19932;-74
2023/01/10 01:50:24;;;;;;;;;;;33.80;82.40;;;;;;5069950;28;20002;-73
2023/01/10 01:52:52;;;;;;;;;;;34.00;81.10;;;;;;5066767;28;19920;-73
2023/01/10 01:55:19;;;;;;;;;;;34.00;79.60;;;;;;5071875;28;19927;-73
2023/01/10 01:57:47;;;;;;;;;;;34.00;79.30;;;;;;5068727;28;19912;-74
2023/01/10 02:00:14;;;;;;;;;;;34.00;80.50;;;;;;5070325;28;19917;-73
2023/01/10 02:02:45;;;;;;;;;;;34.10;80.40;;;;;;5066914;28;19917;-73
2023/01/10 02:05:14;;;;;;;;;;;34.30;81.50;;;;;;5062343;28;20002;-72
2023/01/10 02:07:43;;;;;;;;;;;34.40;79.70;;;;;;5065697;28;19916;-73
2023/01/10 02:10:12;;;;;;;;;;;34.40;79.40;;;;;;5060372;28;19913;-74
2023/01/10 02:12:39;;;;;;;;;;;34.50;78.60;;;;;;5063090;28;19916;-73
2023/01/10 02:15:06;;;;;;;;;;;34.50;78.80;;;;;;5070654;28;19962;-72
2023/01/10 02:17:33;;;;;;;;;;;34.40;78.70;;;;;;5068041;28;20369;-73
2023/01/10 02:20:02;;;;;;;;;;;34.40;78.80;;;;;;5102979;28;19913;-72
2023/01/10 02:22:40;;;;;;;;;;;34.30;79.50;;;;;;5063483;28;19919;-73
2023/01/10 02:25:10;;;;;;;;;;;34.40;78.20;;;;;;5061688;28;19920;-73
2023/01/10 02:27:51;;;;;;;;;;;34.40;78.80;;;;;;5070946;28;19916;-71
2023/01/10 02:30:35;;;;;;;;;;;34.40;77.50;;;;;;5055403;28;19923;-71
2023/01/10 02:33:02;;;;;;;;;;;34.30;79.40;;;;;;5060078;28;20401;-71
2023/01/10 02:35:44;;;;;;;;;;;34.30;77.90;;;;;;5060278;28;19912;-73
2023/01/10 02:38:22;;;;;;;;;;;34.30;78.90;;;;;;5056011;28;19917;-73
2023/01/10 02:41:01;;;;;;;;;;;34.20;77.50;;;;;;5060323;28;19946;-76
2023/01/10 02:43:37;;;;;;;;;;;34.10;76.60;;;;;;5060119;28;19924;-74
2023/01/10 02:46:06;;;;;;;;;;;33.70;78.10;;;;;;5061110;28;19935;-73
2023/01/10 02:48:33;;;;;;;;;;;33.80;80.20;;;;;;5057864;28;19923;-71
2023/01/10 02:50:59;;;;;;;;;;;34.00;78.60;;;;;;5059149;28;20259;-73
2023/01/10 02:53:49;;;;;;;;;;;34.10;78.50;;;;;;5058016;28;19924;-73
2023/01/10 02:56:31;;;;;;;;;;;34.10;78.90;;;;;;5053657;28;19912;-75
2023/01/10 02:58:58;;;;;;;;;;;34.00;80.40;;;;;;5057035;28;19932;-76
2023/01/10 03:01:48;;;;;;;;;;;34.10;80.80;;;;;;5058012;28;19916;-72
2023/01/10 03:04:20;;;;;;;;;;;34.20;79.80;;;;;;5057386;28;19920;-73
2023/01/10 03:06:54;;;;;;;;;;;34.30;78.70;;;;;;5059595;28;19963;-74
2023/01/10 03:09:26;;;;;;;;;;;34.10;80.40;;;;;;5059113;28;19940;-74
2023/01/10 03:11:57;;;;;;;;;;;34.00;79.70;;;;;;5067373;28;19913;-74
2023/01/10 03:14:25;;;;;;;;;;;33.90;80.90;;;;;;5063188;28;19921;-77
2023/01/10 03:16:57;;;;;;;;;;;33.80;80.10;;;;;;5061090;28;19912;-74
2023/01/10 03:19:26;;;;;;;;;;;33.70;80.90;;;;;;5059063;28;19960;-75
2023/01/10 03:21:56;;;;;;;;;;;33.50;80.90;;;;;;5062610;28;20317;-73
2023/01/10 03:24:51;;;;;;;;;;;33.30;83.00;;;;;;5055309;28;19982;-74
2023/01/10 03:27:21;;;;;;;;;;;33.30;82.30;;;;;;5060665;28;20074;-77
2023/01/10 03:29:56;;;;;;;;;;;33.10;81.90;;;;;;5059898;28;19917;-75
2023/01/10 03:32:25;;;;;;;;;;;33.00;80.80;;;;;;5066697;28;19920;-74
2023/01/10 03:34:52;;;;;;;;;;;32.80;82.30;;;;;;5059051;28;19917;-74
2023/01/10 03:37:26;;;;;;;;;;;32.90;82.00;;;;;;5059411;28;20500;-74
2023/01/10 03:39:57;;;;;;;;;;;33.00;82.60;;;;;;5057762;28;20393;-75
2023/01/10 03:45:38;;;;;;;;;;;33.10;82.90;;;;;;5059616;28;19932;-75
2023/01/10 03:48:06;;;;;;;;;;;32.90;83.40;;;;;;5059463;28;19955;-73
2023/01/10 03:50:33;;;;;;;;;;;32.70;83.90;;;;;;5062896;28;19916;-74
2023/01/10 03:53:00;;;;;;;;;;;32.80;82.80;;;;;;5062494;28;20266;-74
2023/01/10 03:55:28;;;;;;;;;;;32.80;83.60;;;;;;5061766;28;19913;-74
2023/01/10 03:57:55;;;;;;;;;;;32.70;83.10;;;;;;5059137;28;19928;-76
2023/01/10 04:00:23;;;;;;;;;;;32.60;84.30;;;;;;5060009;28;19954;-75
2023/01/10 04:02:49;;;;;;;;;;;32.60;83.20;;;;;;5059188;28;20403;-73
2023/01/10 04:05:16;;;;;;;;;;;32.60;85.20;;;;;;5058801;28;20015;-74
2023/01/10 04:07:43;;;;;;;;;;;32.70;85.40;;;;;;5065847;28;19923;-76
2023/01/10 04:10:10;;;;;;;;;;;32.90;85.20;;;;;;5052058;28;19920;-76
2023/01/10 04:12:36;;;;;;;;;;;32.90;82.40;;;;;;5068748;28;19916;-75
2023/01/10 04:15:03;;;;;;;;;;;32.70;83.70;;;;;;5066507;28;20033;-76
2023/01/10 04:17:30;;;;;;;;;;;32.40;84.90;;;;;;5066242;28;20137;-76
2023/01/10 04:19:57;;;;;;;;;;;32.30;85.30;;;;;;5060218;28;19913;-76
2023/01/10 04:22:23;;;;;;;;;;;32.20;85.90;;;;;;5062661;28;19912;-76
2023/01/10 04:24:50;;;;;;;;;;;32.30;85.70;;;;;;5064486;28;19916;-76
2023/01/10 04:27:18;;;;;;;;;;;32.30;85.70;;;;;;5069194;28;19920;-77
2023/01/10 04:29:44;;;;;;;;;;;32.30;85.30;;;;;;5061316;28;19928;-75
2023/01/10 04:32:14;;;;;;;;;;;32.30;86.40;;;;;;5071235;28;20054;-79
2023/01/10 04:34:41;;;;;;;;;;;32.20;85.00;;;;;;5070273;28;20100;-76
2023/01/10 04:37:07;;;;;;;;;;;32.20;85.60;;;;;;5069648;28;20007;-76
2023/01/10 04:39:34;;;;;;;;;;;32.00;85.30;;;;;;5072096;28;19928;-74
2023/01/10 04:42:01;;;;;;;;;;;32.00;86.00;;;;;;5071974;28;20015;-75
2023/01/10 04:44:27;;;;;;;;;;;31.80;86.50;;;;;;5070082;28;19920;-72
2023/01/10 04:46:54;;;;;;;;;;;31.60;86.50;;;;;;5075972;28;19966;-76
2023/01/10 04:49:21;;;;;;;;;;;31.50;86.20;;;;;;5065777;28;19913;-76
2023/01/10 04:51:47;;;;;;;;;;;31.50;87.20;;;;;;5072482;28;19919;-77
2023/01/10 04:54:19;;;;;;;;;;;31.50;85.70;;;;;;5073965;28;19928;-76
2023/01/10 04:56:46;;;;;;;;;;;31.60;86.40;;;;;;5067987;28;20382;-76
2023/01/10 04:59:12;;;;;;;;;;;31.50;85.60;;;;;;5066977;28;20282;-74
2023/01/10 05:01:39;;;;;;;;;;;31.50;86.60;;;;;;5070937;28;19919;-74
2023/01/10 05:04:06;;;;;;;;;;;31.40;85.60;;;;;;5063813;28;19913;-77
2023/01/10 05:06:33;;;;;;;;;;;31.30;85.50;;;;;;5071328;28;19982;-73
2023/01/10 05:09:00;;;;;;;;;;;31.30;85.70;;;;;;5067740;28;20507;-71
2023/01/10 05:11:27;;;;;;;;;;;31.10;85.30;;;;;;5070391;28;19920;-73
2023/01/10 05:13:53;;;;;;;;;;;31.00;85.50;;;;;;5067391;28;19923;-73
2023/01/10 05:16:20;;;;;;;;;;;30.90;86.10;;;;;;5072657;28;19912;-71
2023/01/10 05:18:48;;;;;;;;;;;30.70;85.10;;;;;;5071430;28;20019;-70
2023/01/10 05:21:14;;;;;;;;;;;30.60;86.20;;;;;;5072884;28;19916;-71
2023/01/10 05:23:41;;;;;;;;;;;30.60;86.80;;;;;;5068311;28;19927;-72
2023/01/10 05:26:09;;;;;;;;;;;30.70;87.40;;;;;;5070063;28;19970;-72
2023/01/10 05:28:36;;;;;;;;;;;30.60;86.40;;;;;;5067808;28;19995;-72
2023/01/10 05:31:05;;;;;;;;;;;30.60;86.90;;;;;;5068462;28;19919;-73
2023/01/10 05:33:31;;;;;;;;;;;30.60;87.70;;;;;;5070231;28;20286;-73
2023/01/10 05:36:00;;;;;;;;;;;30.70;86.10;;;;;;5068613;28;19952;-72
2023/01/10 05:38:30;;;;;;;;;;;30.60;85.70;;;;;;5071597;28;19927;-72
2023/01/10 05:40:57;;;;;;;;;;;30.40;86.00;;;;;;5070996;28;19924;-74
2023/01/10 05:43:24;;;;;;;;;;;30.30;86.10;;;;;;5068070;28;19921;-73
2023/01/10 05:45:51;;;;;;;;;;;30.20;86.50;;;;;;5057434;28;19916;-75
2023/01/10 05:48:18;;;;;;;;;;;30.20;87.20;;;;;;5069107;28;19917;-72
2023/01/10 05:50:45;;;;;;;;;;;30.20;87.50;;;;;;5072914;28;20008;-74
2023/01/10 05:53:11;;;;;;;;;;;30.20;87.70;;;;;;5073665;28;19916;-74
2023/01/10 05:55:38;;;;;;;;;;;30.10;87.80;;;;;;5069029;28;19923;-73
2023/01/10 05:58:05;;;;;;;;;;;30.00;88.10;;;;;;5078594;28;19950;-72
2023/01/10 06:00:32;;;;;;;;;;;30.00;88.30;;;;;;5073294;28;19938;-72
2023/01/10 06:02:58;;;;;;;;;;;30.00;88.40;;;;;;5068327;28;19917;-73
2023/01/10 06:05:25;;;;;;;;;;;29.90;88.60;;;;;;5062886;28;19931;-72
2023/01/10 06:07:52;;;;;;;;;;;29.80;88.40;;;;;;5070477;28;19974;-74
2023/01/10 06:10:18;;;;;;;;;;;29.90;88.80;;;;;;5058414;28;20349;-74
2023/01/10 06:12:48;;;;;;;;;;;29.80;88.40;;;;;;5064517;28;20001;-73
2023/01/10 06:15:15;;;;;;;;;;;29.70;89.30;;;;;;5066531;28;19917;-73
2023/01/10 06:17:43;;;;;;;;;;;29.60;89.30;;;;;;5060324;28;19931;-73
2023/01/10 06:20:10;;;;;;;;;;;29.20;89.80;;;;;;5060435;28;19950;-73
2023/01/10 06:22:39;;;;;;;;;;;29.00;90.30;;;;;;5067108;28;20699;-72
2023/01/10 06:25:06;;;;;;;;;;;29.10;90.20;;;;;;5067359;28;19919;-70
2023/01/10 06:27:33;;;;;;;;;;;29.00;90.20;;;;;;5068382;28;19920;-73
2023/01/10 06:30:00;;;;;;;;;;;29.10;90.50;;;;;;5066644;28;19927;-71
2023/01/10 06:32:27;;;;;;;;;;;29.00;90.30;;;;;;5071714;28;19913;-72
2023/01/10 06:34:53;;;;;;;;;;;28.90;90.60;;;;;;5066947;28;20367;-71
2023/01/10 06:37:20;;;;;;;;;;;28.90;90.40;;;;;;5061216;28;19917;-72
2023/01/10 06:39:47;;;;;;;;;;;29.00;90.40;;;;;;5066833;28;19921;-70
2023/01/10 06:42:13;;;;;;;;;;;28.90;90.30;;;;;;5064366;28;20302;-71
2023/01/10 06:44:40;;;;;;;;;;;28.80;90.70;;;;;;5065055;28;20022;-71
2023/01/10 06:47:07;;;;;;;;;;;28.60;90.50;;;;;;5071883;28;19917;-71
2023/01/10 06:49:34;;;;;;;;;;;28.40;90.50;;;;;;5068409;28;19928;-71
2023/01/10 06:52:00;;;;;;;;;;;28.30;90.90;;;;;;5068037;28;19912;-73
2023/01/10 06:54:27;;;;;;;;;;;28.30;91.00;;;;;;5064759;28;19918;-73
2023/01/10 06:56:54;;;;;;;;;;;28.30;91.10;;;;;;5066296;28;19956;-71
2023/01/10 06:59:20;;;;;;;;;;;28.20;90.90;;;;;;5068993;28;19913;-73
2023/01/10 07:01:47;;;;;;;;;;;28.20;90.70;;;;;;5075301;28;19918;-74
2023/01/10 07:04:14;;;;;;;;;;;28.10;90.80;;;;;;5065304;28;19992;-73
2023/01/10 07:06:41;;;;;;;;;;;27.90;91.00;;;;;;5063369;28;19924;-72
2023/01/10 07:09:08;;;;;;;;;;;27.80;91.20;;;;;;5058349;28;19924;-72
2023/01/10 07:11:35;;;;;;;;;;;27.70;91.30;;;;;;5061977;28;20367;-73
2023/01/10 07:14:01;;;;;;;;;;;27.60;91.30;;;;;;5066430;28;20405;-74
2023/01/10 07:16:28;;;;;;;;;;;27.50;91.30;;;;;;5065756;28;19912;-74
2023/01/10 07:18:55;;;;;;;;;;;27.40;91.20;;;;;;5066331;28;19913;-74
2023/01/10 07:21:22;;;;;;;;;;;27.20;91.30;;;;;;5069576;28;20391;-73
2023/01/10 07:23:49;;;;;;;;;;;27.20;91.20;;;;;;5066300;28;19916;-73
2023/01/10 07:26:19;;;;;;;;;;;27.10;91.50;;;;;;5064647;28;20014;-72
2023/01/10 07:28:49;;;;;;;;;;;27.00;91.70;;;;;;5054541;28;19920;-75
2023/01/10 07:31:16;;;;;;;;;;;27.00;91.80;;;;;;5069820;28;20358;-73
2023/01/10 07:33:43;;;;;;;;;;;26.90;91.90;;;;;;5056213;28;19916;-73
2023/01/10 07:36:10;;;;;;;;;;;26.90;92.10;;;;;;5068750;28;20319;-72
2023/01/10 07:38:37;;;;;;;;;;;26.80;92.10;;;;;;5062111;28;20436;-71
2023/01/10 07:41:05;;;;;;;;;;;26.80;92.10;;;;;;5070026;28;20368;-71
2023/01/10 07:43:32;;;;;;;;;;;26.70;92.30;;;;;;5065037;28;20383;-74
2023/01/10 07:46:00;;;;;;;;;;;26.60;92.20;;;;;;5065799;28;20280;-72
2023/01/10 07:48:26;;;;;;;;;;;26.50;92.20;;;;;;5068748;28;22352;-72
2023/01/10 07:50:59;;;;;;;;;;;26.50;92.20;;;;;;5066285;28;19930;-73
2023/01/10 07:53:27;;;;;;;;;;;26.40;92.30;;;;;;5068824;28;19946;-72
2023/01/10 07:55:54;;;;;;;;;;;26.30;92.10;;;;;;5065866;28;19923;-71
2023/01/10 07:58:20;;;;;;;;;;;26.20;92.40;;;;;;5060501;28;19920;-72
2023/01/10 08:00:49;;;;;;;;;;;26.10;92.30;;;;;;5062791;28;19919;-71
2023/01/10 08:03:16;;;;;;;;;;;26.00;92.30;;;;;;5066647;28;19919;-71
2023/01/10 08:05:43;;;;;;;;;;;25.90;92.50;;;;;;5066176;28;19921;-71
2023/01/10 08:08:11;;;;;;;;;;;25.80;92.50;;;;;;5056644;28;20045;-71
2023/01/10 08:10:39;;;;;;;;;;;25.70;92.70;;;;;;5063100;28;20389;-72
2023/01/10 08:13:05;;;;;;;;;;;25.60;92.90;;;;;;5063176;28;19963;-72
2023/01/10 08:15:32;;;;;;;;;;;25.50;93.00;;;;;;5066631;28;19931;-72
2023/01/10 08:18:00;;;;;;;;;;;25.30;93.20;;;;;;5067807;28;19916;-71
2023/01/10 08:20:26;;;;;;;;;;;25.30;93.30;;;;;;5062795;28;19916;-72
2023/01/10 08:22:53;;;;;;;;;;;25.20;93.50;;;;;;5059440;28;20216;-71
2023/01/10 08:25:20;;;;;;;;;;;25.20;93.60;;;;;;5057125;28;19994;-71
2023/01/10 08:27:46;;;;;;;;;;;25.00;93.60;;;;;;5063348;28;19921;-72
2023/01/10 08:30:13;;;;;;;;;;;24.90;93.80;;;;;;5063129;28;20290;-71
2023/01/10 08:32:40;;;;;;;;;;;24.90;93.90;;;;;;5069802;28;20437;-72
2023/01/10 08:35:07;;;;;;;;;;;24.90;94.00;;;;;;5064590;28;19920;-71
2023/01/10 08:37:34;;;;;;;;;;;24.70;94.10;;;;;;5064180;28;20437;-70
2023/01/10 08:40:01;;;;;;;;;;;24.60;94.20;;;;;;5067651;28;19943;-70
2023/01/10 08:42:27;;;;;;;;;;;24.50;94.50;;;;;;5070916;28;20378;-71
2023/01/10 08:44:54;;;;;;;;;;;24.50;94.60;;;;;;5061631;28;19927;-70
2023/01/10 08:47:21;;;;;;;;;;;24.40;94.60;;;;;;5070081;28;19974;-70
2023/01/10 08:49:48;;;;;;;;;;;24.40;94.80;;;;;;5066976;28;19916;-70
2023/01/10 08:52:16;;;;;;;;;;;24.30;94.90;;;;;;5067809;28;19917;-72
2023/01/10 08:54:43;;;;;;;;;;;24.20;95.00;;;;;;5058728;28;19924;-72
2023/01/10 08:57:09;;;;;;;;;;;24.20;95.20;;;;;;5056527;28;19913;-72
2023/01/10 08:59:36;;;;;;;;;;;24.10;95.30;;;;;;5068057;28;19916;-71
2023/01/10 09:02:03;;;;;;;;;;;24.00;95.40;;;;;;5058941;28;19924;-71
2023/01/10 09:04:33;;;;;;;;;;;24.00;95.70;;;;;;5065253;28;20346;-71
2023/01/10 09:07:00;;;;;;;;;;;23.90;95.70;;;;;;5058701;28;19967;-71
2023/01/10 09:09:26;;;;;;;;;;;23.80;95.90;;;;;;5062719;28;19951;-73
2023/01/10 09:11:53;;;;;;;;;;;23.70;96.10;;;;;;5067607;28;19944;-71
2023/01/10 09:14:19;;;;;;;;;;;23.60;96.30;;;;;;5065523;28;19916;-71
2023/01/10 09:16:50;;;;;;;;;;;23.60;96.40;;;;;;5069076;28;19912;-71
2023/01/10 09:19:17;;;;;;;;;;;23.50;96.50;;;;;;5071115;28;20370;-71
2023/01/10 09:21:44;;;;;;;;;;;23.50;96.70;;;;;;5070654;28;19917;-71
2023/01/10 09:24:11;;;;;;;;;;;23.40;96.90;;;;;;5069577;28;19923;-71
2023/01/10 09:26:37;;;;;;;;;;;23.30;97.00;;;;;;5063174;28;19925;-71
2023/01/10 09:29:04;;;;;;;;;;;23.30;97.30;;;;;;5069416;28;19921;-72
2023/01/10 09:31:31;;;;;;;;;;;23.20;97.30;;;;;;5070605;28;20381;-72
2023/01/10 09:33:57;;;;;;;;;;;23.20;97.50;;;;;;5069526;28;19912;-71
2023/01/10 09:36:24;;;;;;;;;;;23.10;97.60;;;;;;5070506;28;20041;-71
2023/01/10 09:38:51;;;;;;;;;;;23.10;97.80;;;;;;5069518;28;19920;-71
2023/01/10 09:41:23;;;;;;;;;;;23.00;98.00;;;;;;5071614;28;19974;-70
2023/01/10 09:43:53;;;;;;;;;;;22.90;98.00;;;;;;5065524;28;19913;-72
2023/01/10 09:46:29;;;;;;;;;;;22.90;98.10;;;;;;5074653;28;19943;-73
2023/01/10 09:49:06;;;;;;;;;;;22.90;98.30;;;;;;5069648;28;19923;-73
2023/01/10 09:51:40;;;;;;;;;;;22.90;98.20;;;;;;5071752;28;19936;-71
2023/01/10 09:54:12;;;;;;;;;;;22.90;98.30;;;;;;5069029;28;20031;-71
2023/01/10 09:56:39;;;;;;;;;;;23.00;98.20;;;;;;5062518;28;19940;-71
2023/01/10 09:59:06;;;;;;;;;;;23.00;98.40;;;;;;5060713;28;19917;-72
2023/01/10 10:01:36;;;;;;;;;;;22.90;98.50;;;;;;5067978;28;19913;-72
2023/01/10 10:04:06;;;;;;;;;;;22.80;98.50;;;;;;5070244;28;19921;-72
2023/01/10 10:06:33;;;;;;;;;;;22.90;98.50;;;;;;5056573;28;19931;-72
2023/01/10 10:09:00;;;;;;;;;;;22.90;98.50;;;;;;5067359;28;20339;-70
2023/01/10 10:11:26;;;;;;;;;;;22.80;98.40;;;;;;5071731;28;19928;-70
2023/01/10 10:14:11;;;;;;;;;;;22.80;98.40;;;;;;5068088;28;20411;-71
2023/01/10 10:16:44;;;;;;;;;;;22.80;98.30;;;;;;5068918;28;20619;-70
2023/01/10 10:19:29;;;;;;;;;;;22.80;98.40;;;;;;5066155;28;20286;-70
2023/01/10 10:22:08;;;;;;;;;;;22.70;98.60;;;;;;5071334;28;19966;-73
2023/01/10 10:24:41;;;;;;;;;;;22.80;98.80;;;;;;5068640;28;19970;-73
2023/01/10 10:27:20;;;;;;;;;;;22.80;98.50;;;;;;5071759;28;20420;-70
2023/01/10 10:29:52;;;;;;;;;;;22.90;98.40;;;;;;5062527;28;19944;-71
2023/01/10 10:32:22;;;;;;;;;;;23.00;98.30;;;;;;5068828;28;19917;-68
2023/01/10 10:34:56;;;;;;;;;;;23.10;98.20;;;;;;5064435;28;20260;-69
2023/01/10 10:37:39;;;;;;;;;;;23.10;98.10;;;;;;5069883;28;20034;-72
2023/01/10 10:40:10;;;;;;;;;;;23.10;98.10;;;;;;5066883;28;19931;-69
2023/01/10 10:42:39;;;;;;;;;;;22.90;98.40;;;;;;5073068;28;19913;-70
2023/01/10 10:45:14;;;;;;;;;;;22.80;98.70;;;;;;5068474;28;19912;-70
2023/01/10 10:47:42;;;;;;;;;;;22.70;99.00;;;;;;5071423;28;20007;-71
2023/01/10 10:50:09;;;;;;;;;;;22.60;99.10;;;;;;5058052;28;19920;-69
2023/01/10 10:52:36;;;;;;;;;;;22.50;99.30;;;;;;5061600;28;19917;-70
2023/01/10 10:55:04;;;;;;;;;;;22.50;99.50;;;;;;5068738;28;19927;-70
2023/01/10 10:57:31;;;;;;;;;;;22.40;99.60;;;;;;5066811;28;19917;-71
2023/01/10 10:59:59;;;;;;;;;;;22.30;99.70;;;;;;5064118;28;20310;-72
2023/01/10 11:02:28;;;;;;;;;;;22.30;99.80;;;;;;5071649;28;19913;-71
2023/01/10 11:04:59;;;;;;;;;;;22.40;99.70;;;;;;5067082;28;19921;-71
2023/01/10 11:07:28;;;;;;;;;;;22.60;99.60;;;;;;5070009;28;19924;-71
2023/01/10 11:10:07;;;;;;;;;;;22.60;99.60;;;;;;5063227;28;19966;-71
2023/01/10 11:12:35;;;;;;;;;;;22.60;99.50;;;;;;5052238;28;19958;-70
2023/01/10 11:15:01;;;;;;;;;;;22.70;99.60;;;;;;5064628;28;19916;-70
2023/01/10 11:17:30;;;;;;;;;;;22.70;99.60;;;;;;5067633;28;20422;-69
2023/01/10 11:19:56;;;;;;;;;;;22.60;99.70;;;;;;5067913;28;19968;-70
2023/01/10 11:22:27;;;;;;;;;;;22.50;99.90;;;;;;5069956;28;19918;-72
2023/01/10 11:25:01;;;;;;;;;;;22.40;99.90;;;;;;5057443;28;20164;-70
2023/01/10 11:27:31;;;;;;;;;;;22.30;99.90;;;;;;5062889;28;20774;-70
2023/01/10 11:30:08;;;;;;;;;;;22.20;99.90;;;;;;5062732;28;19944;-72
2023/01/10 11:32:36;;;;;;;;;;;22.10;99.90;;;;;;5068330;28;19917;-71
2023/01/10 11:35:08;;;;;;;;;;;22.00;99.90;;;;;;5066266;28;19923;-72
2023/01/10 11:37:35;;;;;;;;;;;21.90;99.90;;;;;;5058382;28;19913;-72
2023/01/10 11:40:17;;;;;;;;;;;22.00;99.90;;;;;;5063148;28;19925;-69
2023/01/10 11:42:44;;;;;;;;;;;21.90;99.90;;;;;;5067399;28;20551;-78
2023/01/10 11:45:16;;;;;;;;;;;21.90;99.90;;;;;;5065424;28;19977;-77
2023/01/10 11:47:49;;;;;;;;;;;21.90;99.90;;;;;;5073805;28;19931;-77
2023/01/10 11:50:20;;;;;;;;;;;21.90;99.90;;;;;;5066555;28;20050;-75
2023/01/10 11:52:47;;;;;;;;;;;21.90;99.90;;;;;;5068214;28;20045;-71
2023/01/10 11:55:25;;;;;;;;;;;21.90;99.90;;;;;;5059157;28;19920;-74
2023/01/10 11:57:58;;;;;;;;;;;21.80;99.90;;;;;;5063519;28;19926;-72
2023/01/10 12:00:36;;;;;;;;;;;21.80;99.90;;;;;;5060495;28;19930;-73
2023/01/10 12:03:14;;;;;;;;;;;21.80;99.90;;;;;;5066748;28;20035;-71
2023/01/10 12:05:40;;;;;;;;;;;21.80;99.90;;;;;;5061882;28;19935;-71
2023/01/10 12:08:22;;;;;;;;;;;21.80;99.90;;;;;;5060601;28;19959;-72
2023/01/10 12:10:56;;;;;;;;;;;21.70;99.90;;;;;;5055137;28;19967;-71
2023/01/10 12:13:23;;;;;;;;;;;21.70;99.90;;;;;;5058423;28;20023;-73
2023/01/10 12:15:49;;;;;;;;;;;21.70;99.90;;;;;;5067508;28;19917;-73
2023/01/10 12:18:18;;;;;;;;;;;21.60;99.90;;;;;;5062968;28;19912;-70
2023/01/10 12:20:50;;;;;;;;;;;21.70;99.90;;;;;;5063685;28;19931;-71
2023/01/10 12:23:19;;;;;;;;;;;21.80;99.90;;;;;;5062752;28;20011;-73
2023/01/10 12:25:46;;;;;;;;;;;21.80;99.90;;;;;;5069455;28;20413;-74
2023/01/10 12:28:24;;;;;;;;;;;21.90;99.90;;;;;;5066264;28;19913;-72
2023/01/10 12:30:54;;;;;;;;;;;21.90;99.90;;;;;;5065707;28;20350;-72
2023/01/10 12:33:45;;;;;;;;;;;21.90;99.90;;;;;;5066699;28;20431;-72
2023/01/10 12:36:14;;;;;;;;;;;22.00;99.90;;;;;;5063884;28;19919;-71
2023/01/10 12:39:06;;;;;;;;;;;22.00;99.90;;;;;;5050454;28;20026;-73
2023/01/10 12:44:51;;;;;;;;;;;22.00;99.90;;;;;;5053397;28;19919;-70
2023/01/10 12:47:29;;;;;;;;;;;22.00;99.90;;;;;;5066718;28;19920;-71
2023/01/10 12:49:55;;;;;;;;;;;22.00;99.90;;;;;;5065154;28;19915;-75
2023/01/10 12:52:44;;;;;;;;;;;22.00;99.90;;;;;;5065903;28;19913;-71
2023/01/10 12:55:15;;;;;;;;;;;22.00;99.90;;;;;;5072672;28;20318;-71
2023/01/10 12:57:42;;;;;;;;;;;22.00;99.90;;;;;;5057706;28;19912;-70
2023/01/10 13:00:29;;;;;;;;;;;22.00;99.90;;;;;;5062411;28;19920;-72
2023/01/10 13:02:58;;;;;;;;;;;21.90;99.90;;;;;;5065218;28;19917;-71
2023/01/10 13:05:26;;;;;;;;;;;21.90;99.90;;;;;;5071092;28;20025;-71
2023/01/10 13:07:55;;;;;;;;;;;21.90;99.90;;;;;;5068286;28;19952;-72
2023/01/10 13:10:22;;;;;;;;;;;21.90;99.90;;;;;;5066845;28;19920;-72
2023/01/10 13:12:53;;;;;;;;;;;21.80;99.90;;;;;;5060626;28;20346;-71
2023/01/10 13:15:22;;;;;;;;;;;21.80;99.90;;;;;;5063715;28;19924;-72
2023/01/10 13:17:59;;;;;;;;;;;21.80;99.90;;;;;;5070636;28;19916;-71
2023/01/10 13:20:28;;;;;;;;;;;21.80;99.90;;;;;;5067600;28;19912;-72
2023/01/10 13:22:56;;;;;;;;;;;21.80;99.90;;;;;;5064510;28;20011;-73
2023/01/10 13:25:23;;;;;;;;;;;21.70;99.90;;;;;;5066251;28;19954;-71
2023/01/10 13:27:56;;;;;;;;;;;21.70;99.90;;;;;;5068981;28;19913;-71
2023/01/10 13:30:36;;;;;;;;;;;21.70;99.90;;;;;;5065496;28;19923;-70
2023/01/10 13:33:28;;;;;;;;;;;21.70;99.90;;;;;;5064983;28;19939;-73
2023/01/10 13:36:07;;;;;;;;;;;21.70;99.90;;;;;;5067553;28;19919;-71
2023/01/10 13:38:46;;;;;;;;;;;21.60;99.90;;;;;;5070455;28;19966;-73
2023/01/10 13:44:05;;;;;;;;;;;21.60;99.90;;;;;;5054412;28;20017;-73
2023/01/10 13:46:33;;;;;;;;;;;21.60;99.90;;;;;;5059650;28;19952;-70
2023/01/10 13:49:02;;;;;;;;;;;21.60;99.90;;;;;;5068901;28;19935;-73
2023/01/10 13:51:29;;;;;;;;;;;21.60;99.90;;;;;;5104673;28;20283;-72
2023/01/10 13:53:58;;;;;;;;;;;21.60;99.90;;;;;;5069119;28;20389;-72
2023/01/10 13:56:29;;;;;;;;;;;21.60;99.90;;;;;;5071805;28;19914;-72
2023/01/10 14:04:25;;;;;;;;;;;21.50;99.90;;;;;;5069092;28;19966;-72
2023/01/10 14:06:56;;;;;;;;;;;21.50;99.90;;;;;;5069311;28;19981;-71
2023/01/10 14:09:23;;;;;;;;;;;21.50;99.90;;;;;;5064449;28;20313;-70
2023/01/10 14:11:49;;;;;;;;;;;21.50;99.90;;;;;;5055942;28;20004;-70
2023/01/10 14:14:24;;;;;;;;;;;21.50;99.90;;;;;;5060316;28;20363;-70
2023/01/10 14:16:55;;;;;;;;;;;21.50;99.90;;;;;;5062249;28;19924;-71
2023/01/10 14:19:22;;;;;;;;;;;21.40;99.90;;;;;;5064873;28;19916;-73
2023/01/10 14:21:51;;;;;;;;;;;21.40;99.90;;;;;;5061216;28;20366;-71
2023/01/10 14:24:23;;;;;;;;;;;21.40;99.90;;;;;;5068120;28;20484;-74
2023/01/10 14:26:51;;;;;;;;;;;21.40;99.90;;;;;;5067064;28;19925;-73
2023/01/10 14:29:19;;;;;;;;;;;21.40;99.90;;;;;;5062388;28;20004;-72
2023/01/10 14:31:47;;;;;;;;;;;21.40;99.90;;;;;;5056203;28;19909;-73
2023/01/10 14:34:19;;;;;;;;;;;21.40;99.90;;;;;;5057222;28;19912;-73
2023/01/10 14:36:55;;;;;;;;;;;21.40;99.90;;;;;;5063878;28;19913;-73
2023/01/10 14:39:22;;;;;;;;;;;21.30;99.90;;;;;;5063167;28;19917;-72
2023/01/10 14:41:51;;;;;;;;;;;21.30;99.90;;;;;;5083600;28;20037;-74
2023/01/10 14:44:29;;;;;;;;;;;21.30;99.90;;;;;;5079788;28;19916;-70
2023/01/10 14:46:56;;;;;;;;;;;21.30;99.90;;;;;;5072923;28;22502;-74
2023/01/10 14:49:25;;;;;;;;;;;21.30;99.90;;;;;;5070102;28;19917;-73